Terminal Aerodrome Forecast
Issued by NWS

Home | Current Version | Previous Version | Text Only | Print | Product List | Glossary On
Versions: 1 2 3 4 5 6 7 8 9 10 11 12
490
FTPA31 PHFO 231731
TAFHMK
TAF
PHMK 231731Z 2318/2418 05014G22KT P6SM SCT025
     FM232000 05017G25KT P6SM VCSH SCT025 BKN045
     FM240400 05011G19KT P6SM FEW025 SCT045
      AMD NOT SKED=

USA.gov is the U.S. government's official web portal to all federal, state and local government web resources and services.